sensor_id;sensor_type;location;lat;lon;timestamp;pressure;altitude;pressure_sealevel;temperature;humidity
25084;BME280;13075;55.682;37.564;2023-05-03T00:00:59;99703.84;;;15.07;40.74
25084;BME280;13075;55.682;37.564;2023-05-03T00:03:26;99702.50;;;14.98;40.75
25084;BME280;13075;55.682;37.564;2023-05-03T00:05:52;99712.53;;;14.91;41.32
25084;BME280;13075;55.682;37.564;2023-05-03T00:08:17;99704.59;;;14.78;41.52
25084;BME280;13075;55.682;37.564;2023-05-03T00:10:43;99714.22;;;14.67;41.08
25084;BME280;13075;55.682;37.564;2023-05-03T00:13:08;99707.88;;;14.98;40.37
25084;BME280;13075;55.682;37.564;2023-05-03T00:15:33;99710.66;;;14.73;41.53
25084;BME280;13075;55.682;37.564;2023-05-03T00:17:59;99704.00;;;14.94;40.48
25084;BME280;13075;55.682;37.564;2023-05-03T00:20:24;99694.41;;;14.98;40.56
25084;BME280;13075;55.682;37.564;2023-05-03T00:22:50;99693.81;;;14.78;41.22
25084;BME280;13075;55.682;37.564;2023-05-03T00:25:16;99687.00;;;14.93;41.71
25084;BME280;13075;55.682;37.564;2023-05-03T00:27:42;99687.00;;;14.75;41.01
25084;BME280;13075;55.682;37.564;2023-05-03T00:30:07;99688.13;;;14.86;41.36
25084;BME280;13075;55.682;37.564;2023-05-03T00:32:34;99688.84;;;14.57;41.31
25084;BME280;13075;55.682;37.564;2023-05-03T00:34:59;99670.56;;;14.83;41.19
25084;BME280;13075;55.682;37.564;2023-05-03T00:37:25;99676.97;;;15.01;40.94
25084;BME280;13075;55.682;37.564;2023-05-03T00:39:51;99673.75;;;14.92;41.46
25084;BME280;13075;55.682;37.564;2023-05-03T00:42:17;99675.16;;;14.76;42.17
25084;BME280;13075;55.682;37.564;2023-05-03T00:44:42;99654.88;;;14.92;41.14
25084;BME280;13075;55.682;37.564;2023-05-03T00:47:07;99663.59;;;14.76;42.37
25084;BME280;13075;55.682;37.564;2023-05-03T00:49:33;99662.91;;;14.62;41.59
25084;BME280;13075;55.682;37.564;2023-05-03T00:51:59;99669.13;;;14.81;41.92
25084;BME280;13075;55.682;37.564;2023-05-03T00:54:26;99651.84;;;14.70;42.01
25084;BME280;13075;55.682;37.564;2023-05-03T00:56:51;99664.78;;;14.98;41.31
25084;BME280;13075;55.682;37.564;2023-05-03T00:59:17;99658.34;;;14.63;42.38
25084;BME280;13075;55.682;37.564;2023-05-03T01:01:42;99651.09;;;14.63;42.05
25084;BME280;13075;55.682;37.564;2023-05-03T01:04:08;99646.78;;;14.56;42.28
25084;BME280;13075;55.682;37.564;2023-05-03T01:09:05;99633.13;;;14.57;42.33
25084;BME280;13075;55.682;37.564;2023-05-03T01:11:35;99627.06;;;14.62;41.99
25084;BME280;13075;55.682;37.564;2023-05-03T01:14:07;99621.75;;;14.91;41.74
25084;BME280;13075;55.682;37.564;2023-05-03T01:16:45;99631.56;;;14.86;42.67
25084;BME280;13075;55.682;37.564;2023-05-03T01:21:54;99632.69;;;14.78;42.15
25084;BME280;13075;55.682;37.564;2023-05-03T01:24:21;99646.22;;;14.29;43.44
25084;BME280;13075;55.682;37.564;2023-05-03T01:26:48;99623.91;;;14.47;43.30
25084;BME280;13075;55.682;37.564;2023-05-03T01:29:13;99620.56;;;14.51;42.85
25084;BME280;13075;55.682;37.564;2023-05-03T01:31:48;99626.22;;;14.43;42.63
25084;BME280;13075;55.682;37.564;2023-05-03T01:36:59;99609.00;;;14.26;43.20
25084;BME280;13075;55.682;37.564;2023-05-03T01:39:39;99619.44;;;14.16;43.43
25084;BME280;13075;55.682;37.564;2023-05-03T01:42:08;99617.25;;;14.49;43.15
25084;BME280;13075;55.682;37.564;2023-05-03T01:44:33;99614.13;;;14.52;43.10
25084;BME280;13075;55.682;37.564;2023-05-03T01:47:00;99604.63;;;14.25;42.95
25084;BME280;13075;55.682;37.564;2023-05-03T01:49:26;99602.84;;;14.19;43.34
25084;BME280;13075;55.682;37.564;2023-05-03T01:51:53;99603.44;;;14.21;43.25
25084;BME280;13075;55.682;37.564;2023-05-03T01:54:19;99604.38;;;14.33;43.10
25084;BME280;13075;55.682;37.564;2023-05-03T01:56:44;99598.72;;;14.41;43.08
25084;BME280;13075;55.682;37.564;2023-05-03T01:59:11;99595.34;;;14.64;42.84
25084;BME280;13075;55.682;37.564;2023-05-03T02:01:37;99602.16;;;14.48;43.09
25084;BME280;13075;55.682;37.564;2023-05-03T02:04:02;99592.50;;;14.59;43.19
25084;BME280;13075;55.682;37.564;2023-05-03T02:06:28;99604.28;;;14.21;43.36
25084;BME280;13075;55.682;37.564;2023-05-03T02:08:57;99613.47;;;14.75;42.77
25084;BME280;13075;55.682;37.564;2023-05-03T02:11:23;99606.50;;;14.49;43.42
25084;BME280;13075;55.682;37.564;2023-05-03T02:13:49;99595.63;;;14.74;43.38
25084;BME280;13075;55.682;37.564;2023-05-03T02:16:17;99595.56;;;14.98;42.47
25084;BME280;13075;55.682;37.564;2023-05-03T02:18:43;99593.63;;;14.87;42.77
25084;BME280;13075;55.682;37.564;2023-05-03T02:21:08;99593.19;;;14.54;43.07
25084;BME280;13075;55.682;37.564;2023-05-03T02:23:34;99587.94;;;14.59;43.05
25084;BME280;13075;55.682;37.564;2023-05-03T02:26:00;99600.97;;;14.44;43.48
25084;BME280;13075;55.682;37.564;2023-05-03T02:28:25;99595.28;;;14.52;43.46
25084;BME280;13075;55.682;37.564;2023-05-03T02:30:50;99596.41;;;14.81;43.24
25084;BME280;13075;55.682;37.564;2023-05-03T02:33:16;99596.56;;;14.68;43.29
25084;BME280;13075;55.682;37.564;2023-05-03T02:35:42;99588.38;;;14.92;43.00
25084;BME280;13075;55.682;37.564;2023-05-03T02:38:07;99587.19;;;15.18;42.59
25084;BME280;13075;55.682;37.564;2023-05-03T02:40:33;99588.50;;;14.97;43.12
25084;BME280;13075;55.682;37.564;2023-05-03T02:42:59;99589.00;;;14.58;43.33
25084;BME280;13075;55.682;37.564;2023-05-03T02:45:27;99594.81;;;14.91;42.94
25084;BME280;13075;55.682;37.564;2023-05-03T02:47:53;99577.72;;;14.97;43.23
25084;BME280;13075;55.682;37.564;2023-05-03T02:50:22;99589.88;;;14.88;43.23
25084;BME280;13075;55.682;37.564;2023-05-03T02:52:48;99593.41;;;14.89;43.02
25084;BME280;13075;55.682;37.564;2023-05-03T02:55:13;99590.34;;;15.15;43.10
25084;BME280;13075;55.682;37.564;2023-05-03T02:57:43;99587.44;;;15.17;42.91
25084;BME280;13075;55.682;37.564;2023-05-03T03:00:11;99588.31;;;14.99;43.05
25084;BME280;13075;55.682;37.564;2023-05-03T03:02:39;99591.16;;;15.16;42.78
25084;BME280;13075;55.682;37.564;2023-05-03T03:05:05;99587.75;;;15.09;42.89
25084;BME280;13075;55.682;37.564;2023-05-03T03:07:31;99589.41;;;15.10;42.89
25084;BME280;13075;55.682;37.564;2023-05-03T03:09:56;99593.28;;;14.48;43.38
25084;BME280;13075;55.682;37.564;2023-05-03T03:12:22;99598.00;;;15.00;43.06
25084;BME280;13075;55.682;37.564;2023-05-03T03:14:48;99598.00;;;15.00;43.16
25084;BME280;13075;55.682;37.564;2023-05-03T03:17:13;99599.72;;;14.94;43.59
25084;BME280;13075;55.682;37.564;2023-05-03T03:19:39;99597.97;;;14.88;43.66
25084;BME280;13075;55.682;37.564;2023-05-03T03:22:04;99590.69;;;15.07;44.06
25084;BME280;13075;55.682;37.564;2023-05-03T03:24:31;99603.81;;;15.15;43.63
25084;BME280;13075;55.682;37.564;2023-05-03T03:26:56;99602.53;;;15.18;43.46
25084;BME280;13075;55.682;37.564;2023-05-03T03:29:23;99601.47;;;15.07;43.44
25084;BME280;13075;55.682;37.564;2023-05-03T03:31:48;99598.44;;;15.15;43.68
25084;BME280;13075;55.682;37.564;2023-05-03T03:34:15;99597.81;;;14.83;43.51
25084;BME280;13075;55.682;37.564;2023-05-03T03:36:41;99595.00;;;14.78;44.09
25084;BME280;13075;55.682;37.564;2023-05-03T03:39:07;99601.63;;;14.94;44.32
25084;BME280;13075;55.682;37.564;2023-05-03T03:41:34;99603.94;;;14.90;44.33
25084;BME280;13075;55.682;37.564;2023-05-03T03:44:00;99605.28;;;15.29;43.79
25084;BME280;13075;55.682;37.564;2023-05-03T03:46:25;99608.34;;;15.03;43.48
25084;BME280;13075;55.682;37.564;2023-05-03T03:48:54;99611.03;;;15.03;43.37
25084;BME280;13075;55.682;37.564;2023-05-03T03:51:21;99607.63;;;14.78;43.95
25084;BME280;13075;55.682;37.564;2023-05-03T03:53:46;99619.81;;;14.98;43.77
25084;BME280;13075;55.682;37.564;2023-05-03T03:56:12;99614.97;;;14.71;44.25
25084;BME280;13075;55.682;37.564;2023-05-03T03:58:38;99621.56;;;15.05;44.31
25084;BME280;13075;55.682;37.564;2023-05-03T04:01:06;99613.53;;;14.86;44.45
25084;BME280;13075;55.682;37.564;2023-05-03T04:03:32;99627.88;;;14.44;46.49
25084;BME280;13075;55.682;37.564;2023-05-03T04:05:58;99634.56;;;14.60;48.60
25084;BME280;13075;55.682;37.564;2023-05-03T04:08:24;99629.16;;;14.78;48.68
25084;BME280;13075;55.682;37.564;2023-05-03T04:10:50;99615.72;;;14.60;49.68
25084;BME280;13075;55.682;37.564;2023-05-03T04:13:16;99623.03;;;14.71;50.70
25084;BME280;13075;55.682;37.564;2023-05-03T04:15:43;99622.81;;;14.54;49.80
25084;BME280;13075;55.682;37.564;2023-05-03T04:18:08;99630.81;;;14.43;50.09
25084;BME280;13075;55.682;37.564;2023-05-03T04:20:36;99626.25;;;14.61;49.61
25084;BME280;13075;55.682;37.564;2023-05-03T04:23:04;99634.84;;;14.52;50.70
25084;BME280;13075;55.682;37.564;2023-05-03T04:25:29;99626.38;;;14.48;49.30
25084;BME280;13075;55.682;37.564;2023-05-03T04:28:05;99610.78;;;15.05;49.93
25084;BME280;13075;55.682;37.564;2023-05-03T04:30:32;99626.44;;;15.14;51.57
25084;BME280;13075;55.682;37.564;2023-05-03T04:32:59;99636.66;;;15.24;52.80
25084;BME280;13075;55.682;37.564;2023-05-03T04:35:27;99630.28;;;14.88;52.06
25084;BME280;13075;55.682;37.564;2023-05-03T04:37:54;99630.50;;;14.87;52.91
25084;BME280;13075;55.682;37.564;2023-05-03T04:40:22;99641.81;;;14.95;54.90
25084;BME280;13075;55.682;37.564;2023-05-03T04:42:56;99659.38;;;14.98;55.38
25084;BME280;13075;55.682;37.564;2023-05-03T04:45:23;99645.25;;;14.66;57.67
25084;BME280;13075;55.682;37.564;2023-05-03T04:47:49;99662.31;;;14.78;58.97
25084;BME280;13075;55.682;37.564;2023-05-03T04:50:15;99651.66;;;14.47;59.00
25084;BME280;13075;55.682;37.564;2023-05-03T04:52:43;99653.69;;;14.27;60.05
25084;BME280;13075;55.682;37.564;2023-05-03T04:55:09;99646.75;;;14.62;61.68
25084;BME280;13075;55.682;37.564;2023-05-03T04:57:36;99665.56;;;14.19;62.31
25084;BME280;13075;55.682;37.564;2023-05-03T05:00:01;99651.06;;;14.81;63.46
25084;BME280;13075;55.682;37.564;2023-05-03T05:02:28;99664.38;;;15.13;63.88
25084;BME280;13075;55.682;37.564;2023-05-03T05:04:53;99664.09;;;15.03;64.17
25084;BME280;13075;55.682;37.564;2023-05-03T05:07:20;99663.59;;;15.12;63.45
25084;BME280;13075;55.682;37.564;2023-05-03T05:09:45;99662.22;;;14.67;63.27
25084;BME280;13075;55.682;37.564;2023-05-03T05:12:11;99659.34;;;14.44;66.18
25084;BME280;13075;55.682;37.564;2023-05-03T05:14:39;99660.91;;;14.76;63.76
25084;BME280;13075;55.682;37.564;2023-05-03T05:17:06;99656.25;;;14.83;63.30
25084;BME280;13075;55.682;37.564;2023-05-03T05:19:32;99660.66;;;14.95;63.20
25084;BME280;13075;55.682;37.564;2023-05-03T05:21:57;99656.53;;;15.11;61.74
25084;BME280;13075;55.682;37.564;2023-05-03T05:24:29;99661.94;;;15.41;60.30
25084;BME280;13075;55.682;37.564;2023-05-03T05:26:54;99665.88;;;15.27;61.80
25084;BME280;13075;55.682;37.564;2023-05-03T05:29:20;99663.19;;;15.09;62.60
25084;BME280;13075;55.682;37.564;2023-05-03T05:31:45;99668.84;;;15.37;62.64
25084;BME280;13075;55.682;37.564;2023-05-03T05:34:11;99666.34;;;14.87;66.95
25084;BME280;13075;55.682;37.564;2023-05-03T05:36:37;99660.25;;;15.28;68.05
25084;BME280;13075;55.682;37.564;2023-05-03T05:39:04;99660.31;;;15.40;65.66
25084;BME280;13075;55.682;37.564;2023-05-03T05:41:31;99655.06;;;15.75;66.62
25084;BME280;13075;55.682;37.564;2023-05-03T05:43:57;99662.22;;;15.81;62.27
25084;BME280;13075;55.682;37.564;2023-05-03T05:46:23;99663.59;;;16.25;61.14
25084;BME280;13075;55.682;37.564;2023-05-03T05:48:50;99664.22;;;16.61;58.56
25084;BME280;13075;55.682;37.564;2023-05-03T05:51:16;99657.16;;;16.72;58.52
25084;BME280;13075;55.682;37.564;2023-05-03T05:53:42;99655.22;;;17.07;59.83
25084;BME280;13075;55.682;37.564;2023-05-03T05:56:07;99653.94;;;16.98;56.17
25084;BME280;13075;55.682;37.564;2023-05-03T05:58:33;99669.63;;;16.61;57.40
25084;BME280;13075;55.682;37.564;2023-05-03T06:01:01;99667.22;;;17.00;56.86
25084;BME280;13075;55.682;37.564;2023-05-03T06:03:32;99670.59;;;17.07;56.05
25084;BME280;13075;55.682;37.564;2023-05-03T06:06:00;99668.56;;;16.74;56.50
25084;BME280;13075;55.682;37.564;2023-05-03T06:08:25;99671.47;;;16.72;55.56
25084;BME280;13075;55.682;37.564;2023-05-03T06:10:52;99655.06;;;17.14;55.96
25084;BME280;13075;55.682;37.564;2023-05-03T06:13:18;99652.72;;;17.45;53.79
25084;BME280;13075;55.682;37.564;2023-05-03T06:15:45;99663.53;;;17.57;54.23
25084;BME280;13075;55.682;37.564;2023-05-03T06:18:11;99668.66;;;18.70;51.25
25084;BME280;13075;55.682;37.564;2023-05-03T06:20:37;99673.53;;;18.90;51.01
25084;BME280;13075;55.682;37.564;2023-05-03T06:23:03;99673.44;;;19.23;50.24
25084;BME280;13075;55.682;37.564;2023-05-03T06:25:28;99678.97;;;18.90;50.05
25084;BME280;13075;55.682;37.564;2023-05-03T06:27:53;99663.59;;;18.74;50.00
25084;BME280;13075;55.682;37.564;2023-05-03T06:30:23;99664.69;;;19.38;49.22
25084;BME280;13075;55.682;37.564;2023-05-03T06:32:50;99669.97;;;19.27;49.48
25084;BME280;13075;55.682;37.564;2023-05-03T06:35:16;99679.72;;;19.45;49.06
25084;BME280;13075;55.682;37.564;2023-05-03T06:37:44;99685.34;;;19.00;50.10
25084;BME280;13075;55.682;37.564;2023-05-03T06:40:09;99679.13;;;19.21;48.88
25084;BME280;13075;55.682;37.564;2023-05-03T06:42:35;99686.81;;;19.29;49.36
25084;BME280;13075;55.682;37.564;2023-05-03T06:45:06;99688.88;;;19.01;48.81
25084;BME280;13075;55.682;37.564;2023-05-03T06:47:32;99680.69;;;19.61;48.92
25084;BME280;13075;55.682;37.564;2023-05-03T06:49:58;99674.47;;;19.17;48.73
25084;BME280;13075;55.682;37.564;2023-05-03T06:52:23;99666.50;;;19.80;48.14
25084;BME280;13075;55.682;37.564;2023-05-03T06:54:49;99674.38;;;20.40;47.92
25084;BME280;13075;55.682;37.564;2023-05-03T06:57:15;99668.50;;;20.54;47.36
25084;BME280;13075;55.682;37.564;2023-05-03T06:59:40;99665.53;;;22.60;43.57
25084;BME280;13075;55.682;37.564;2023-05-03T07:02:06;99683.56;;;22.15;44.48
25084;BME280;13075;55.682;37.564;2023-05-03T07:04:31;99690.50;;;21.51;44.25
25084;BME280;13075;55.682;37.564;2023-05-03T07:06:57;99688.75;;;21.25;44.57
25084;BME280;13075;55.682;37.564;2023-05-03T07:09:23;99679.97;;;20.66;45.35
25084;BME280;13075;55.682;37.564;2023-05-03T07:11:48;99688.59;;;20.94;46.24
25084;BME280;13075;55.682;37.564;2023-05-03T07:14:15;99687.53;;;21.00;45.88
25084;BME280;13075;55.682;37.564;2023-05-03T07:16:41;99687.63;;;20.69;45.91
25084;BME280;13075;55.682;37.564;2023-05-03T07:19:06;99687.53;;;21.00;45.46
25084;BME280;13075;55.682;37.564;2023-05-03T07:21:32;99688.19;;;22.20;43.04
25084;BME280;13075;55.682;37.564;2023-05-03T07:23:59;99690.34;;;22.53;41.98
25084;BME280;13075;55.682;37.564;2023-05-03T07:26:25;99689.00;;;22.30;43.02
25084;BME280;13075;55.682;37.564;2023-05-03T07:28:51;99686.81;;;21.87;42.80
25084;BME280;13075;55.682;37.564;2023-05-03T07:31:16;99685.19;;;21.96;43.44
25084;BME280;13075;55.682;37.564;2023-05-03T07:33:41;99692.19;;;21.77;42.99
25084;BME280;13075;55.682;37.564;2023-05-03T07:36:07;99688.91;;;21.60;43.94
25084;BME280;13075;55.682;37.564;2023-05-03T07:38:33;99693.28;;;21.81;44.13
25084;BME280;13075;55.682;37.564;2023-05-03T07:40:58;99695.66;;;23.29;41.02
25084;BME280;13075;55.682;37.564;2023-05-03T07:43:24;99696.34;;;22.30;43.69
25084;BME280;13075;55.682;37.564;2023-05-03T07:45:49;99705.28;;;21.80;43.43
25084;BME280;13075;55.682;37.564;2023-05-03T07:48:15;99712.19;;;21.31;44.80
25084;BME280;13075;55.682;37.564;2023-05-03T07:50:41;99713.19;;;20.73;44.67
25084;BME280;13075;55.682;37.564;2023-05-03T07:53:08;99721.72;;;22.25;43.82
25084;BME280;13075;55.682;37.564;2023-05-03T07:55:33;99724.72;;;22.74;43.47
25084;BME280;13075;55.682;37.564;2023-05-03T07:58:00;99731.00;;;22.50;42.18
25084;BME280;13075;55.682;37.564;2023-05-03T08:00:26;99723.31;;;21.91;43.01
25084;BME280;13075;55.682;37.564;2023-05-03T08:02:52;99729.34;;;21.26;44.23
25084;BME280;13075;55.682;37.564;2023-05-03T08:05:17;99731.88;;;21.01;45.67
25084;BME280;13075;55.682;37.564;2023-05-03T08:07:43;99737.94;;;20.71;45.17
25084;BME280;13075;55.682;37.564;2023-05-03T08:10:08;99741.50;;;20.40;46.75
25084;BME280;13075;55.682;37.564;2023-05-03T08:12:34;99733.97;;;20.20;47.38
25084;BME280;13075;55.682;37.564;2023-05-03T08:15:00;99733.69;;;20.22;46.86
25084;BME280;13075;55.682;37.564;2023-05-03T08:17:25;99743.34;;;20.34;47.39
25084;BME280;13075;55.682;37.564;2023-05-03T08:19:51;99747.91;;;20.02;47.94
25084;BME280;13075;55.682;37.564;2023-05-03T08:22:19;99749.66;;;19.65;49.01
25084;BME280;13075;55.682;37.564;2023-05-03T08:24:44;99756.88;;;19.76;48.00
25084;BME280;13075;55.682;37.564;2023-05-03T08:27:10;99759.53;;;19.71;48.56
25084;BME280;13075;55.682;37.564;2023-05-03T08:29:36;99764.88;;;19.44;48.95
25084;BME280;13075;55.682;37.564;2023-05-03T08:32:02;99763.00;;;19.45;50.26
25084;BME280;13075;55.682;37.564;2023-05-03T08:34:28;99767.72;;;19.54;51.31
25084;BME280;13075;55.682;37.564;2023-05-03T08:36:54;99761.13;;;19.94;51.63
25084;BME280;13075;55.682;37.564;2023-05-03T08:39:20;99764.88;;;19.44;52.46
25084;BME280;13075;55.682;37.564;2023-05-03T08:41:45;99770.31;;;19.44;51.71
25084;BME280;13075;55.682;37.564;2023-05-03T08:44:11;99779.53;;;18.88;52.93
25084;BME280;13075;55.682;37.564;2023-05-03T08:46:36;99771.06;;;19.40;54.47
25084;BME280;13075;55.682;37.564;2023-05-03T08:49:03;99760.16;;;19.18;54.96
25084;BME280;13075;55.682;37.564;2023-05-03T08:51:28;99751.31;;;19.44;55.91
25084;BME280;13075;55.682;37.564;2023-05-03T08:53:54;99760.34;;;19.50;54.99
25084;BME280;13075;55.682;37.564;2023-05-03T08:56:24;99759.66;;;19.21;54.24
25084;BME280;13075;55.682;37.564;2023-05-03T08:58:53;99752.09;;;19.40;53.62
25084;BME280;13075;55.682;37.564;2023-05-03T09:01:19;99752.72;;;19.08;55.56
25084;BME280;13075;55.682;37.564;2023-05-03T09:03:48;99756.47;;;18.86;56.23
25084;BME280;13075;55.682;37.564;2023-05-03T09:06:21;99753.28;;;19.10;56.67
25084;BME280;13075;55.682;37.564;2023-05-03T09:08:50;99761.31;;;18.67;58.87
25084;BME280;13075;55.682;37.564;2023-05-03T09:11:19;99766.75;;;18.67;57.47
25084;BME280;13075;55.682;37.564;2023-05-03T09:13:45;99782.41;;;18.03;58.42
25084;BME280;13075;55.682;37.564;2023-05-03T09:16:10;99789.13;;;18.46;59.91
25084;BME280;13075;55.682;37.564;2023-05-03T09:18:54;99791.63;;;18.19;62.44
25084;BME280;13075;55.682;37.564;2023-05-03T09:21:20;99797.19;;;18.13;63.75
25084;BME280;13075;55.682;37.564;2023-05-03T09:23:45;99793.81;;;17.77;65.08
25084;BME280;13075;55.682;37.564;2023-05-03T09:26:11;99798.13;;;17.04;68.98
25084;BME280;13075;55.682;37.564;2023-05-03T09:28:51;99790.19;;;17.49;69.75
25084;BME280;13075;55.682;37.564;2023-05-03T09:31:17;99784.41;;;17.96;68.75
25084;BME280;13075;55.682;37.564;2023-05-03T09:33:42;99784.28;;;17.75;68.85
25084;BME280;13075;55.682;37.564;2023-05-03T09:36:08;99794.31;;;17.63;70.85
25084;BME280;13075;55.682;37.564;2023-05-03T09:38:34;99793.75;;;17.89;69.89
25084;BME280;13075;55.682;37.564;2023-05-03T09:41:00;99792.84;;;18.56;69.27
25084;BME280;13075;55.682;37.564;2023-05-03T09:43:27;99791.22;;;18.72;68.40
25084;BME280;13075;55.682;37.564;2023-05-03T09:45:52;99803.47;;;19.29;66.25
25084;BME280;13075;55.682;37.564;2023-05-03T09:48:31;99800.00;;;19.34;65.75
25084;BME280;13075;55.682;37.564;2023-05-03T09:50:56;99803.53;;;18.96;66.24
25084;BME280;13075;55.682;37.564;2023-05-03T09:53:22;99806.47;;;18.61;67.40
25084;BME280;13075;55.682;37.564;2023-05-03T09:55:47;99811.50;;;18.53;69.03
25084;BME280;13075;55.682;37.564;2023-05-03T09:58:15;99798.94;;;18.80;68.34
25084;BME280;13075;55.682;37.564;2023-05-03T10:00:42;99796.94;;;19.09;69.01
25084;BME280;13075;55.682;37.564;2023-05-03T10:03:11;99805.41;;;18.96;69.34
25084;BME280;13075;55.682;37.564;2023-05-03T10:05:39;99802.13;;;19.70;66.17
25084;BME280;13075;55.682;37.564;2023-05-03T10:08:06;99809.84;;;19.78;66.28
25084;BME280;13075;55.682;37.564;2023-05-03T10:10:31;99802.25;;;19.37;65.62
25084;BME280;13075;55.682;37.564;2023-05-03T10:12:59;99801.94;;;19.55;66.34
25084;BME280;13075;55.682;37.564;2023-05-03T10:15:25;99790.72;;;19.68;65.47
25084;BME280;13075;55.682;37.564;2023-05-03T10:17:52;99804.72;;;19.60;66.09
25084;BME280;13075;55.682;37.564;2023-05-03T10:20:40;99803.06;;;19.59;64.99
25084;BME280;13075;55.682;37.564;2023-05-03T10:25:33;99796.97;;;19.47;64.69
25084;BME280;13075;55.682;37.564;2023-05-03T10:28:06;99802.47;;;19.36;66.93
25084;BME280;13075;55.682;37.564;2023-05-03T10:30:33;99787.56;;;19.76;66.97
25084;BME280;13075;55.682;37.564;2023-05-03T10:33:27;99795.09;;;19.96;65.42
25084;BME280;13075;55.682;37.564;2023-05-03T10:35:49;99807.13;;;19.57;66.99
25084;BME280;13075;55.682;37.564;2023-05-03T10:38:18;99808.28;;;18.89;65.80
25084;BME280;13075;55.682;37.564;2023-05-03T10:40:44;99809.69;;;18.75;68.74
25084;BME280;13075;55.682;37.564;2023-05-03T10:45:57;99804.31;;;19.30;65.64
25084;BME280;13075;55.682;37.564;2023-05-03T10:48:23;99812.88;;;19.60;64.55
25084;BME280;13075;55.682;37.564;2023-05-03T10:50:48;99804.91;;;19.75;63.65
25084;BME280;13075;55.682;37.564;2023-05-03T10:53:34;99802.44;;;20.22;62.96
25084;BME280;13075;55.682;37.564;2023-05-03T10:56:07;99797.28;;;20.79;62.10
25084;BME280;13075;55.682;37.564;2023-05-03T10:58:36;99803.84;;;20.83;59.79
25084;BME280;13075;55.682;37.564;2023-05-03T11:01:03;99801.16;;;20.88;58.56
25084;BME280;13075;55.682;37.564;2023-05-03T11:03:32;99795.53;;;20.63;61.74
25084;BME280;13075;55.682;37.564;2023-05-03T11:05:59;99795.94;;;20.50;59.45
25084;BME280;13075;55.682;37.564;2023-05-03T11:08:25;99808.44;;;20.46;59.20
25084;BME280;13075;55.682;37.564;2023-05-03T11:10:58;99803.41;;;20.33;58.76
25084;BME280;13075;55.682;37.564;2023-05-03T11:13:24;99800.09;;;20.58;59.37
25084;BME280;13075;55.682;37.564;2023-05-03T11:15:50;99802.59;;;21.01;57.70
25084;BME280;13075;55.682;37.564;2023-05-03T11:18:17;99797.25;;;20.42;58.23
25084;BME280;13075;55.682;37.564;2023-05-03T11:20:42;99807.09;;;20.85;57.16
25084;BME280;13075;55.682;37.564;2023-05-03T11:23:08;99806.34;;;20.58;58.77
25084;BME280;13075;55.682;37.564;2023-05-03T11:25:35;99800.06;;;20.52;58.59
25084;BME280;13075;55.682;37.564;2023-05-03T11:28:01;99796.81;;;20.56;58.62
25084;BME280;13075;55.682;37.564;2023-05-03T11:30:28;99790.81;;;20.54;56.97
25084;BME280;13075;55.682;37.564;2023-05-03T11:32:53;99785.78;;;20.67;56.11
25084;BME280;13075;55.682;37.564;2023-05-03T11:35:19;99779.19;;;21.32;56.32
25084;BME280;13075;55.682;37.564;2023-05-03T11:37:48;99778.19;;;20.69;55.71
25084;BME280;13075;55.682;37.564;2023-05-03T11:40:14;99783.09;;;21.09;56.21
25084;BME280;13075;55.682;37.564;2023-05-03T11:42:50;99781.28;;;21.25;56.55
25084;BME280;13075;55.682;37.564;2023-05-03T11:45:16;99785.38;;;21.27;54.65
25084;BME280;13075;55.682;37.564;2023-05-03T11:47:42;99781.22;;;21.15;54.00
25084;BME280;13075;55.682;37.564;2023-05-03T11:50:08;99777.47;;;21.21;53.54
25084;BME280;13075;55.682;37.564;2023-05-03T11:52:35;99769.41;;;21.41;54.75
25084;BME280;13075;55.682;37.564;2023-05-03T11:55:01;99767.38;;;21.16;54.42
25084;BME280;13075;55.682;37.564;2023-05-03T11:57:30;99779.06;;;21.17;54.28
25084;BME280;13075;55.682;37.564;2023-05-03T12:00:08;99777.03;;;21.39;53.32
25084;BME280;13075;55.682;37.564;2023-05-03T12:02:37;99786.84;;;20.34;54.28
25084;BME280;13075;55.682;37.564;2023-05-03T12:05:03;99779.56;;;20.18;54.76
25084;BME280;13075;55.682;37.564;2023-05-03T12:07:30;99776.88;;;20.45;54.70
25084;BME280;13075;55.682;37.564;2023-05-03T12:09:56;99779.53;;;20.67;54.23
25084;BME280;13075;55.682;37.564;2023-05-03T12:12:21;99770.69;;;20.55;54.33
25084;BME280;13075;55.682;37.564;2023-05-03T12:14:54;99795.13;;;21.13;54.24
25084;BME280;13075;55.682;37.564;2023-05-03T12:17:32;99789.78;;;20.96;52.48
25084;BME280;13075;55.682;37.564;2023-05-03T12:22:41;99792.00;;;21.36;52.23
25084;BME280;13075;55.682;37.564;2023-05-03T12:25:06;99797.84;;;21.13;52.15
25084;BME280;13075;55.682;37.564;2023-05-03T12:27:32;99799.19;;;21.10;53.21
25084;BME280;13075;55.682;37.564;2023-05-03T12:29:58;99790.56;;;21.24;52.79
25084;BME280;13075;55.682;37.564;2023-05-03T12:32:23;99784.47;;;21.58;52.41
25084;BME280;13075;55.682;37.564;2023-05-03T12:34:49;99798.91;;;21.64;50.74
25084;BME280;13075;55.682;37.564;2023-05-03T12:37:15;99788.59;;;21.19;51.49
25084;BME280;13075;55.682;37.564;2023-05-03T12:39:40;99788.44;;;20.99;51.76
25084;BME280;13075;55.682;37.564;2023-05-03T12:42:07;99780.72;;;20.49;52.50
25084;BME280;13075;55.682;37.564;2023-05-03T12:44:32;99785.66;;;20.57;53.40
25084;BME280;13075;55.682;37.564;2023-05-03T12:46:57;99783.78;;;20.58;53.93
25084;BME280;13075;55.682;37.564;2023-05-03T12:49:23;99797.63;;;20.88;53.13
25084;BME280;13075;55.682;37.564;2023-05-03T12:51:48;99796.81;;;20.56;53.91
25084;BME280;13075;55.682;37.564;2023-05-03T12:54:14;99790.78;;;21.17;52.83
25084;BME280;13075;55.682;37.564;2023-05-03T12:56:40;99792.81;;;21.00;52.36
25084;BME280;13075;55.682;37.564;2023-05-03T12:59:06;99780.53;;;21.29;53.58
25084;BME280;13075;55.682;37.564;2023-05-03T13:01:32;99785.44;;;20.95;53.26
25084;BME280;13075;55.682;37.564;2023-05-03T13:03:57;99789.22;;;20.26;54.70